createdAt,value
2019-04-29T00:01:43.029Z,2.25
2019-04-29T00:04:14.809Z,2.50
2019-04-29T00:06:46.558Z,2.58
2019-04-29T00:09:19.033Z,2.35
2019-04-29T00:11:50.637Z,2.35
2019-04-29T00:14:22.650Z,2.80
2019-04-29T00:17:02.096Z,2.92
2019-04-29T00:19:41.307Z,2.35
2019-04-29T00:22:12.863Z,2.50
2019-04-29T00:24:45.087Z,2.35
2019-04-29T00:27:16.486Z,2.45
2019-04-29T00:29:48.257Z,2.45
2019-04-29T00:32:20.123Z,2.67
2019-04-29T00:34:51.978Z,2.67
2019-04-29T00:37:31.106Z,2.60
2019-04-29T00:40:23.091Z,2.12
2019-04-29T00:42:59.610Z,2.08
2019-04-29T00:45:31.573Z,2.22
2019-04-29T00:48:03.202Z,2.40
2019-04-29T00:50:35.018Z,2.50
2019-04-29T00:53:06.536Z,2.65
2019-04-29T00:55:38.085Z,2.67
2019-04-29T00:58:09.746Z,2.52
2019-04-29T01:00:42.955Z,2.58
2019-04-29T01:03:14.889Z,2.45
2019-04-29T01:05:46.538Z,2.70
2019-04-29T01:08:18.346Z,2.47
2019-04-29T01:10:50.599Z,2.65
2019-04-29T01:13:22.623Z,2.65
2019-04-29T01:15:54.379Z,3.35
2019-04-29T01:18:25.930Z,2.70
2019-04-29T01:20:57.729Z,3.08
2019-04-29T01:23:29.482Z,2.80
2019-04-29T01:26:02.759Z,2.95
2019-04-29T01:28:35.743Z,2.65
2019-04-29T01:31:09.155Z,2.52
2019-04-29T01:33:40.794Z,2.85
2019-04-29T01:36:16.981Z,2.40
2019-04-29T01:38:49.718Z,3.00
2019-04-29T01:41:25.511Z,2.83
2019-04-29T01:44:04.257Z,3.27
2019-04-29T01:46:35.870Z,3.00
2019-04-29T01:49:07.617Z,2.98
2019-04-29T01:51:39.603Z,3.27
2019-04-29T01:54:11.465Z,3.52
2019-04-29T01:56:43.705Z,3.05
2019-04-29T01:59:15.451Z,3.27
2019-04-29T02:01:47.330Z,3.00
2019-04-29T02:04:19.106Z,2.67
2019-04-29T02:06:50.848Z,3.10
2019-04-29T02:09:33.469Z,3.17
2019-04-29T02:12:05.457Z,3.00
2019-04-29T02:14:37.477Z,2.90
2019-04-29T02:17:09.357Z,2.58
2019-04-29T02:19:40.976Z,2.70
2019-04-29T02:22:17.447Z,2.92
2019-04-29T02:24:50.744Z,2.50
2019-04-29T02:27:22.267Z,2.80
2019-04-29T02:29:54.206Z,2.90
2019-04-29T02:32:26.133Z,2.60
2019-04-29T02:34:58.015Z,3.10
2019-04-29T02:37:31.063Z,2.87
2019-04-29T02:40:07.124Z,2.92
2019-04-29T02:42:40.773Z,3.12
2019-04-29T02:45:16.854Z,3.90
2019-04-29T02:47:48.718Z,3.50
2019-04-29T02:50:21.628Z,2.77
2019-04-29T02:52:53.229Z,3.30
2019-04-29T02:55:27.430Z,3.75
2019-04-29T02:58:03.690Z,3.50
2019-04-29T03:00:37.223Z,3.60
2019-04-29T03:03:10.368Z,3.37
2019-04-29T03:05:43.437Z,3.25
2019-04-29T03:08:14.989Z,3.95
2019-04-29T03:10:46.770Z,3.80
2019-04-29T03:13:18.768Z,4.00
2019-04-29T03:15:50.900Z,4.12
2019-04-29T03:18:24.305Z,3.55
2019-04-29T03:20:57.366Z,3.27
2019-04-29T03:23:29.449Z,3.90
2019-04-29T03:26:00.975Z,4.30
2019-04-29T03:28:32.907Z,3.75
2019-04-29T03:31:04.736Z,4.00
2019-04-29T03:33:36.589Z,3.95
2019-04-29T03:36:08.422Z,3.75
2019-04-29T03:38:39.899Z,4.40
2019-04-29T03:41:11.530Z,4.45
2019-04-29T03:43:43.588Z,5.72
2019-04-29T03:46:15.275Z,4.97
2019-04-29T03:48:47.146Z,4.83
2019-04-29T03:51:18.971Z,5.72
2019-04-29T03:53:50.415Z,5.75
2019-04-29T03:56:22.174Z,6.28
2019-04-29T03:58:53.703Z,6.37
2019-04-29T04:01:27.134Z,7.67
2019-04-29T04:04:03.320Z,6.85
2019-04-29T04:06:36.915Z,7.30
2019-04-29T04:09:16.290Z,8.58
2019-04-29T04:11:48.026Z,9.30
2019-04-29T04:14:19.667Z,9.58
2019-04-29T04:17:11.585Z,9.38
2019-04-29T04:19:43.340Z,22.17
2019-04-29T04:22:15.437Z,11.28
2019-04-29T04:24:47.448Z,10.80
2019-04-29T04:27:19.128Z,11.55
2019-04-29T04:29:51.935Z,12.00
2019-04-29T04:32:23.763Z,13.10
2019-04-29T04:34:55.830Z,11.43
2019-04-29T04:37:27.932Z,11.53
2019-04-29T04:40:00.073Z,11.22
2019-04-29T04:42:32.156Z,11.08
2019-04-29T04:45:04.179Z,12.47
2019-04-29T04:47:36.148Z,11.40
2019-04-29T04:50:09.118Z,10.30
2019-04-29T04:52:41.312Z,11.55
2019-04-29T04:55:13.470Z,11.60
2019-04-29T04:57:45.515Z,9.03
2019-04-29T05:00:25.502Z,9.43
2019-04-29T05:02:57.133Z,9.98
2019-04-29T05:05:28.994Z,10.25
2019-04-29T05:08:01.143Z,8.03
2019-04-29T05:10:33.236Z,9.63
2019-04-29T05:13:05.068Z,9.00
2019-04-29T05:15:36.795Z,8.15
2019-04-29T05:18:08.410Z,7.83
2019-04-29T05:20:40.376Z,7.25
2019-04-29T05:23:12.117Z,6.05
2019-04-29T05:25:43.891Z,6.60
2019-04-29T05:28:15.431Z,6.47
2019-04-29T05:30:47.062Z,6.53
2019-04-29T05:33:20.048Z,5.70
2019-04-29T05:36:01.477Z,8.10
2019-04-29T05:38:40.478Z,7.92
2019-04-29T05:41:12.139Z,8.13
2019-04-29T05:44:04.165Z,9.48
2019-04-29T05:46:40.612Z,9.93
2019-04-29T05:49:14.134Z,9.33
2019-04-29T05:51:47.199Z,8.85
2019-04-29T05:54:20.403Z,8.55
2019-04-29T05:56:52.051Z,7.17
2019-04-29T05:59:24.133Z,7.62
2019-04-29T06:01:55.672Z,8.78
2019-04-29T06:04:28.743Z,6.50
2019-04-29T06:07:00.509Z,7.72
2019-04-29T06:09:32.411Z,7.55
2019-04-29T06:12:05.254Z,7.50
2019-04-29T06:14:36.968Z,9.18
2019-04-29T06:17:08.770Z,8.35
2019-04-29T06:19:41.091Z,7.67
2019-04-29T06:22:12.730Z,8.78
2019-04-29T06:24:44.666Z,8.30
2019-04-29T06:27:16.416Z,8.25
2019-04-29T06:29:48.191Z,7.22
2019-04-29T06:32:20.195Z,14.03
2019-04-29T06:34:53.398Z,8.75
2019-04-29T06:37:25.206Z,8.48
2019-04-29T06:39:56.866Z,8.68
2019-04-29T06:42:28.513Z,7.40
2019-04-29T06:45:00.154Z,7.75
2019-04-29T06:47:32.068Z,8.55
2019-04-29T06:50:08.205Z,9.25
2019-04-29T06:52:39.622Z,7.87
2019-04-29T06:55:11.582Z,7.97
2019-04-29T06:57:43.136Z,7.72
2019-04-29T07:00:17.564Z,7.80
2019-04-29T07:02:51.023Z,10.20
2019-04-29T07:05:22.937Z,9.03
2019-04-29T07:07:54.585Z,7.10
2019-04-29T07:10:27.130Z,7.95
2019-04-29T07:12:59.108Z,7.62
2019-04-29T07:15:31.105Z,8.75
2019-04-29T07:18:02.854Z,12.33
2019-04-29T07:20:37.052Z,13.45
2019-04-29T07:23:08.004Z,14.25
2019-04-29T07:25:39.637Z,10.98
2019-04-29T07:28:13.681Z,9.60
2019-04-29T07:31:00.477Z,8.90
2019-04-29T07:33:22.678Z,8.50
2019-04-29T07:35:51.187Z,9.50
2019-04-29T07:38:22.518Z,18.77
2019-04-29T07:40:54.552Z,12.43
2019-04-29T07:43:26.563Z,12.90
2019-04-29T07:46:03.801Z,12.23
2019-04-29T07:48:36.851Z,10.25
2019-04-29T07:51:06.640Z,15.70
2019-04-29T07:53:45.183Z,10.98
2019-04-29T07:56:11.811Z,29.02
2019-04-29T07:58:43.547Z,12.28
2019-04-29T08:01:19.910Z,10.13
2019-04-29T08:03:49.522Z,14.47
2019-04-29T08:06:22.048Z,9.23
2019-04-29T08:08:55.503Z,11.10
2019-04-29T08:11:27.142Z,18.65
2019-04-29T08:14:01.564Z,14.75
2019-04-29T08:16:33.238Z,15.43
2019-04-29T08:19:05.835Z,17.15
2019-04-29T08:21:37.769Z,16.00
2019-04-29T08:24:11.557Z,13.25
2019-04-29T08:26:47.467Z,14.73
2019-04-29T08:29:16.618Z,11.70
2019-04-29T08:31:51.808Z,14.40
2019-04-29T08:34:23.071Z,23.57
2019-04-29T08:36:55.306Z,22.75
2019-04-29T08:39:29.434Z,24.67
2019-04-29T08:42:03.876Z,21.57
2019-04-29T08:44:37.198Z,18.00
2019-04-29T08:47:17.258Z,13.30
2019-04-29T08:49:49.028Z,14.90
2019-04-29T08:52:20.877Z,13.85
2019-04-29T08:54:55.299Z,14.83
2019-04-29T08:57:26.160Z,14.00
2019-04-29T08:59:57.795Z,14.03
2019-04-29T09:02:35.145Z,14.45
2019-04-29T09:05:11.474Z,11.10
2019-04-29T09:07:40.982Z,11.38
2019-04-29T09:10:13.411Z,9.20
2019-04-29T09:12:45.379Z,10.60
2019-04-29T09:15:17.914Z,9.28
2019-04-29T09:17:49.519Z,8.90
2019-04-29T09:20:21.248Z,9.50
2019-04-29T09:23:00.551Z,10.00
2019-04-29T09:25:34.098Z,9.10
2019-04-29T09:28:18.240Z,9.55
2019-04-29T09:30:49.298Z,9.20
2019-04-29T09:33:21.355Z,8.80
2019-04-29T09:35:53.090Z,8.83
2019-04-29T09:38:24.824Z,8.95
2019-04-29T09:41:13.297Z,9.20
2019-04-29T09:43:49.580Z,11.12
2019-04-29T09:46:23.266Z,9.00
2019-04-29T09:48:54.836Z,9.23
2019-04-29T09:51:27.666Z,8.98
2019-04-29T09:53:59.692Z,7.45
2019-04-29T09:56:34.522Z,7.55
2019-04-29T09:59:22.944Z,7.97
2019-04-29T10:01:58.905Z,7.05
2019-04-29T10:04:38.236Z,6.78
2019-04-29T10:07:11.833Z,6.78
2019-04-29T10:09:56.506Z,7.75
2019-04-29T10:12:18.061Z,11.38
2019-04-29T10:14:50.088Z,7.60
2019-04-29T10:17:26.355Z,6.00
2019-04-29T10:20:08.501Z,5.30
2019-04-29T10:22:40.091Z,7.10
2019-04-29T10:25:12.339Z,6.03
2019-04-29T10:27:44.033Z,4.17
2019-04-29T10:30:18.151Z,4.55
2019-04-29T10:32:50.312Z,6.15
2019-04-29T10:35:22.161Z,5.25
2019-04-29T10:37:54.014Z,8.70
2019-04-29T10:40:27.768Z,6.75
2019-04-29T10:43:17.359Z,10.23
2019-04-29T10:45:59.809Z,14.77
2019-04-29T10:48:33.301Z,11.33
2019-04-29T10:51:06.087Z,12.10
2019-04-29T10:53:37.938Z,12.25
2019-04-29T10:56:09.625Z,13.58
2019-04-29T10:58:41.563Z,15.03
2019-04-29T11:01:30.370Z,16.57
2019-04-29T11:04:02.834Z,18.15
2019-04-29T11:06:35.713Z,18.12
2019-04-29T11:09:16.113Z,16.67
2019-04-29T11:11:49.433Z,17.60
2019-04-29T11:14:21.056Z,17.65
2019-04-29T11:16:53.373Z,17.77
2019-04-29T11:19:25.425Z,17.30
2019-04-29T11:22:02.181Z,18.12
2019-04-29T11:24:35.738Z,16.65
2019-04-29T11:27:12.719Z,15.72
2019-04-29T11:29:44.348Z,18.98
2019-04-29T11:32:33.222Z,18.12
2019-04-29T11:35:17.131Z,16.97
2019-04-29T11:37:49.949Z,16.70
2019-04-29T11:40:26.115Z,15.72
2019-04-29T11:42:56.702Z,15.75
2019-04-29T11:45:28.581Z,15.23
2019-04-29T11:48:00.648Z,14.98
2019-04-29T11:50:34.022Z,15.55
2019-04-29T11:53:06.543Z,15.95
2019-04-29T11:55:38.359Z,50.92
2019-04-29T11:58:12.130Z,16.20
2019-04-29T12:01:04.027Z,14.58
2019-04-29T12:03:43.384Z,13.58
2019-04-29T12:06:20.262Z,13.78
2019-04-29T12:08:53.396Z,13.28
2019-04-29T12:11:23.733Z,12.93
2019-04-29T12:13:59.027Z,12.18
2019-04-29T12:16:41.998Z,11.25
2019-04-29T12:19:22.613Z,12.35
2019-04-29T12:21:56.040Z,12.05
2019-04-29T12:24:27.701Z,11.70
2019-04-29T12:26:59.402Z,11.75
2019-04-29T12:29:31.433Z,14.10
2019-04-29T12:32:07.721Z,10.68
2019-04-29T12:34:44.151Z,25.23
2019-04-29T12:37:34.544Z,11.88
2019-04-29T12:40:17.618Z,16.70
2019-04-29T12:43:00.210Z,14.43
2019-04-29T12:45:39.938Z,15.28
2019-04-29T12:48:24.021Z,15.50
2019-04-29T12:50:44.991Z,16.90
2019-04-29T12:53:17.136Z,19.17
2019-04-29T12:55:53.535Z,23.02
2019-04-29T12:58:25.878Z,24.25
2019-04-29T13:01:01.101Z,19.67
2019-04-29T13:03:40.097Z,21.52
2019-04-29T13:06:12.983Z,19.77
2019-04-29T13:08:46.238Z,19.73
2019-04-29T13:11:19.185Z,20.00
2019-04-29T13:13:56.568Z,19.65
2019-04-29T13:16:43.354Z,21.50
2019-04-29T13:19:20.288Z,20.88
2019-04-29T13:21:50.214Z,20.25
2019-04-29T13:24:24.431Z,22.42
2019-04-29T13:26:56.061Z,21.10
2019-04-29T13:29:31.876Z,20.95
2019-04-29T13:32:01.868Z,20.00
2019-04-29T13:34:35.561Z,19.40
2019-04-29T13:37:18.119Z,18.48
2019-04-29T13:39:40.905Z,18.52
2019-04-29T13:42:15.849Z,17.42
2019-04-29T13:45:06.148Z,15.05
2019-04-29T13:47:29.083Z,27.10
2019-04-29T13:50:20.221Z,14.53
2019-04-29T13:52:37.710Z,17.60
2019-04-29T13:55:17.840Z,16.48
2019-04-29T13:57:45.113Z,14.98
2019-04-29T14:00:24.579Z,15.93
2019-04-29T14:02:59.336Z,15.98
2019-04-29T14:05:32.529Z,15.35
2019-04-29T14:08:04.908Z,15.85
2019-04-29T14:10:36.914Z,16.80
2019-04-29T14:13:15.206Z,16.02
2019-04-29T14:15:42.875Z,15.10
2019-04-29T14:18:15.362Z,15.13
2019-04-29T14:20:51.762Z,12.00
2019-04-29T14:23:21.955Z,12.80
2019-04-29T14:25:54.647Z,12.37
2019-04-29T14:28:26.603Z,13.18
2019-04-29T14:30:58.551Z,12.65
2019-04-29T14:33:32.309Z,13.62
2019-04-29T14:36:06.146Z,12.75
2019-04-29T14:38:40.762Z,11.30
2019-04-29T14:41:14.043Z,10.53
2019-04-29T14:43:46.335Z,9.78
2019-04-29T14:46:35.809Z,10.32
2019-04-29T14:49:11.851Z,9.95
2019-04-29T14:51:43.219Z,9.40
2019-04-29T14:54:14.992Z,12.88
2019-04-29T14:56:46.845Z,8.90
2019-04-29T14:59:18.762Z,9.58
2019-04-29T15:01:58.402Z,9.65
2019-04-29T15:04:31.978Z,8.95
2019-04-29T15:07:03.601Z,8.85
2019-04-29T15:09:46.398Z,9.40
2019-04-29T15:12:12.138Z,9.28
2019-04-29T15:14:59.116Z,8.63
2019-04-29T15:17:36.260Z,8.55
2019-04-29T15:20:11.374Z,8.80
2019-04-29T15:22:43.076Z,7.85
2019-04-29T15:25:16.815Z,10.70
2019-04-29T15:27:48.496Z,12.90
2019-04-29T15:30:20.431Z,12.18
2019-04-29T15:32:53.178Z,12.88
2019-04-29T15:35:25.694Z,13.90
2019-04-29T15:37:58.013Z,12.15
2019-04-29T15:40:30.006Z,13.62
2019-04-29T15:43:02.169Z,15.15
2019-04-29T15:45:34.480Z,13.55
2019-04-29T15:48:06.427Z,14.68
2019-04-29T15:50:39.127Z,17.95
2019-04-29T15:53:10.827Z,18.67
2019-04-29T15:55:43.233Z,18.27
2019-04-29T15:58:15.360Z,17.10
2019-04-29T16:00:47.529Z,17.37
2019-04-29T16:03:20.816Z,16.17
2019-04-29T16:06:19.660Z,17.62
2019-04-29T16:08:49.392Z,36.23
2019-04-29T16:11:41.413Z,50.33
2019-04-29T16:14:15.081Z,19.15
2019-04-29T16:16:47.080Z,46.77
2019-04-29T16:19:19.123Z,16.12
2019-04-29T16:21:51.111Z,15.30
2019-04-29T16:24:27.313Z,15.93
2019-04-29T16:27:01.206Z,14.15
2019-04-29T16:29:31.011Z,14.15
2019-04-29T16:32:05.020Z,14.78
2019-04-29T16:34:44.639Z,15.15
2019-04-29T16:37:18.556Z,16.67
2019-04-29T16:39:45.266Z,16.60
2019-04-29T16:42:21.833Z,15.95
2019-04-29T16:44:53.951Z,16.02
2019-04-29T16:47:26.013Z,16.30
2019-04-29T16:50:04.687Z,17.40
2019-04-29T16:52:31.647Z,17.82
2019-04-29T16:55:05.827Z,23.77
2019-04-29T16:57:38.234Z,22.90
2019-04-29T17:00:15.801Z,19.10
2019-04-29T17:02:47.078Z,20.35
2019-04-29T17:05:19.457Z,21.60
2019-04-29T17:07:52.988Z,21.87
2019-04-29T17:10:29.495Z,22.70
2019-04-29T17:13:01.566Z,23.67
2019-04-29T17:15:33.951Z,24.45
2019-04-29T17:18:06.580Z,24.12
2019-04-29T17:20:38.269Z,27.80
2019-04-29T17:23:10.159Z,26.97
2019-04-29T17:25:42.297Z,27.85
2019-04-29T17:28:24.448Z,27.37
2019-04-29T17:31:12.302Z,32.08
2019-04-29T17:36:23.195Z,28.67
2019-04-29T17:38:51.628Z,26.17
2019-04-29T17:41:23.763Z,28.87
2019-04-29T17:44:14.558Z,26.77
2019-04-29T17:46:47.655Z,29.85
2019-04-29T17:49:22.126Z,33.90
2019-04-29T17:51:59.553Z,37.15
2019-04-29T17:54:45.220Z,40.85
2019-04-29T17:57:28.158Z,43.08
2019-04-29T18:00:05.085Z,40.95
2019-04-29T18:02:57.402Z,40.33
2019-04-29T18:05:34.512Z,40.88
2019-04-29T18:08:11.392Z,41.18
2019-04-29T18:10:45.786Z,41.95
2019-04-29T18:13:23.755Z,44.18
2019-04-29T18:16:01.684Z,38.58
2019-04-29T18:18:28.798Z,35.35
2019-04-29T18:21:15.664Z,38.17
2019-04-29T18:23:59.557Z,36.60
2019-04-29T18:26:33.755Z,38.58
2019-04-29T18:29:08.056Z,39.83
2019-04-29T18:31:40.211Z,41.48
2019-04-29T18:34:15.185Z,42.58
2019-04-29T18:36:49.427Z,44.93
2019-04-29T18:39:31.465Z,43.38
2019-04-29T18:44:42.051Z,40.80
2019-04-29T18:47:21.994Z,40.03
2019-04-29T18:49:51.137Z,39.00
2019-04-29T18:52:27.878Z,40.05
2019-04-29T18:55:05.870Z,38.78
2019-04-29T18:57:45.881Z,38.35
2019-04-29T19:00:21.929Z,38.75
2019-04-29T19:03:01.112Z,38.20
2019-04-29T19:05:41.742Z,38.85
2019-04-29T19:08:23.069Z,36.30
2019-04-29T19:10:52.144Z,35.75
2019-04-29T19:13:30.832Z,36.80
2019-04-29T19:16:10.298Z,34.43
2019-04-29T19:18:47.498Z,34.05
2019-04-29T19:21:23.509Z,34.53
2019-04-29T19:23:57.408Z,35.35
2019-04-29T19:26:36.224Z,34.15
2019-04-29T19:29:20.964Z,34.73
2019-04-29T19:32:09.315Z,97.25
2019-04-29T19:34:50.067Z,36.45
2019-04-29T19:37:32.496Z,37.58
2019-04-29T19:40:04.916Z,35.10
2019-04-29T19:42:40.993Z,37.98
2019-04-29T19:45:20.392Z,37.42
2019-04-29T19:47:56.217Z,35.83
2019-04-29T19:50:35.855Z,37.90
2019-04-29T19:53:12.156Z,37.20
2019-04-29T19:55:47.508Z,34.95
2019-04-29T19:58:28.483Z,37.05
2019-04-29T20:01:00.184Z,37.58
2019-04-29T20:03:37.921Z,37.67
2019-04-29T20:06:24.702Z,36.95
2019-04-29T20:08:54.869Z,36.30
2019-04-29T20:11:32.852Z,36.25
2019-04-29T20:14:06.476Z,33.30
2019-04-29T20:16:54.776Z,33.70
2019-04-29T20:19:27.436Z,33.92
2019-04-29T20:22:05.581Z,35.80
2019-04-29T20:24:37.661Z,37.85
2019-04-29T20:27:11.636Z,37.10
2019-04-29T20:29:48.353Z,36.77
2019-04-29T20:32:31.865Z,36.60
2019-04-29T20:35:10.117Z,37.48
2019-04-29T20:37:43.663Z,38.95
2019-04-29T20:40:16.220Z,38.92
2019-04-29T20:42:49.361Z,37.33
2019-04-29T20:45:25.428Z,38.48
2019-04-29T20:47:56.077Z,38.58
2019-04-29T20:50:28.262Z,38.15
2019-04-29T20:53:11.356Z,40.08
2019-04-29T20:55:43.187Z,43.48
2019-04-29T20:58:15.684Z,46.08
2019-04-29T21:00:47.935Z,46.13
2019-04-29T21:03:27.825Z,48.50
2019-04-29T21:05:54.981Z,50.48
2019-04-29T21:08:26.802Z,48.52
2019-04-29T21:11:00.571Z,49.23
2019-04-29T21:13:37.052Z,47.70
2019-04-29T21:16:10.548Z,49.13
2019-04-29T21:18:45.472Z,47.83
2019-04-29T21:21:15.913Z,46.23
2019-04-29T21:23:48.314Z,45.75
2019-04-29T21:26:20.037Z,46.08
2019-04-29T21:28:52.947Z,45.92
2019-04-29T21:31:25.566Z,44.30
2019-04-29T21:33:58.859Z,42.83
2019-04-29T21:36:38.333Z,41.20
2019-04-29T21:39:22.099Z,41.53
2019-04-29T21:41:58.742Z,40.48
2019-04-29T21:44:29.691Z,39.38
2019-04-29T21:47:04.691Z,38.85
2019-04-29T21:49:44.957Z,39.95
2019-04-29T21:52:09.662Z,40.12
2019-04-29T21:54:44.630Z,40.03
2019-04-29T21:57:17.020Z,40.88
2019-04-29T21:59:49.355Z,40.70
2019-04-29T22:02:21.523Z,41.28
2019-04-29T22:04:55.213Z,39.65
2019-04-29T22:07:27.199Z,38.40
2019-04-29T22:09:59.309Z,40.03
2019-04-29T22:12:31.520Z,39.10
2019-04-29T22:15:05.891Z,38.17
2019-04-29T22:17:37.716Z,38.05
2019-04-29T22:20:11.489Z,39.03
2019-04-29T22:22:45.241Z,36.63
2019-04-29T22:25:16.800Z,39.63
2019-04-29T22:27:49.041Z,38.15
2019-04-29T22:30:22.363Z,38.23
2019-04-29T22:32:58.048Z,39.15
2019-04-29T22:35:32.798Z,37.40
2019-04-29T22:38:01.582Z,40.23
2019-04-29T22:40:40.754Z,38.98
2019-04-29T22:43:14.277Z,39.70
2019-04-29T22:45:45.314Z,40.85
2019-04-29T22:48:19.811Z,40.73
2019-04-29T22:50:51.637Z,44.10
2019-04-29T22:53:24.875Z,41.55
2019-04-29T22:55:56.749Z,42.15
2019-04-29T22:58:28.764Z,43.25
2019-04-29T23:01:02.456Z,43.52
2019-04-29T23:03:37.500Z,44.42
2019-04-29T23:06:08.489Z,44.45
2019-04-29T23:08:40.372Z,43.40
2019-04-29T23:11:12.352Z,45.40
2019-04-29T23:13:46.168Z,45.45
2019-04-29T23:16:17.851Z,48.45
2019-04-29T23:18:49.866Z,48.30
2019-04-29T23:21:44.798Z,48.17
2019-04-29T23:24:17.605Z,50.17
2019-04-29T23:26:49.526Z,51.15
2019-04-29T23:29:21.603Z,50.67
2019-04-29T23:31:55.287Z,52.53
2019-04-29T23:34:29.221Z,49.18
2019-04-29T23:37:00.801Z,49.83
2019-04-29T23:39:34.822Z,50.10
2019-04-29T23:42:12.209Z,51.15
2019-04-29T23:44:42.370Z,50.33
2019-04-29T23:47:15.809Z,46.48
2019-04-29T23:49:47.740Z,46.75
2019-04-29T23:52:19.610Z,46.48
2019-04-29T23:54:51.441Z,47.25
2019-04-29T23:57:28.534Z,46.23
